Bartlettsville, Indiana
Current Conditions -  °F | °C
As of 1:53 PM on Tuesday 21 Oct 2014 (Local Time) from KBMG Reporting Station
Overcast Overcast  
Wind Chill: 54°   Ceiling: 3200
Heat Index: 54°   Visibility: 10mi
Dew Point: 43°   Wind: 10mph
Humidity: 66%   Direction: 10°N
Pressure: 30.1"   Gusts: NA
Location:  38.8737°N, 86.4563°W
Report Text: KBMG 211753Z 01009KT 10SM BKN032 BKN039 OVC049 12/06 A3010 RMK AO2 SLP193 T01220061 10139 20083 51005 $
Loading
Personal Weather Stations






























Interactive Weather Map
Tropical Storm Tracking
New forecast layout! Learn more

10-Day Weather Forecast

Advertisements
Track Severe Weather on mobile